• Join FlightAware (Why Join?)
  • Login
  • US Flag 
03:14PM EST


 

Airport Tracker/Info


-or-


 

Live Flight TrackerFlight Track Log ✈ UAL4550 ✈ 23-Apr-2013 ✈ KIAH - KMLU

Flight Track Log - Related Links

Times and Time Zones

All times are in EDT time to prevent confusion due to time zone crossing. See the UAL4550 flight status page for this flight to view local times or setup timezone preferences in your user account.

Time Position Orientation Groundspeed Altitude Reporting Facility
EDT Latitude Longitude Course Direction KTS MPH feet Rate Location/Type
08:11PM 30.2285 -95.1296 32° Northeast  Level FlightAware Approximate
08:12PM 30.3143 -95.0683 32° Northeast  Level FlightAware Approximate
08:13PM 30.3974 -95.0021 35° Northeast  Level FlightAware Approximate
08:14PM 30.4788 -94.9399 36° Northeast  Level FlightAware Approximate
08:15PM 30.5607 -94.8716 36° Northeast  Level FlightAware Approximate
08:16PM 30.6464 -94.8098 32° Northeast  Level FlightAware Approximate
08:17PM 30.7307 -94.7455 34° Northeast  Level FlightAware Approximate
08:18PM 30.8138 -94.6790 34° Northeast  Level FlightAware Approximate
08:19PM 30.8973 -94.6133 34° Northeast  Level FlightAware Approximate
08:20PM 30.9812 -94.5480 34° Northeast  Level FlightAware Approximate
08:21PM 31.0658 -94.4840 33° Northeast  Level FlightAware Approximate
08:22PM 31.1490 -94.4177 41° Northeast  Level FlightAware Approximate
08:23PM 31.2314 -94.3520 41° Northeast  Level FlightAware Approximate
08:24PM 31.3139 -94.2852 30° Northeast  Level FlightAware Approximate
08:25PM 31.3973 -94.2188 34° Northeast  Level FlightAware Approximate
08:26PM 31.4819 -94.1545 34° Northeast  Level FlightAware Approximate
08:27PM 31.5652 -94.0879 34° Northeast  Level FlightAware Approximate
08:28PM 31.6488 -94.0217 33° Northeast  Level FlightAware Approximate
08:29PM 31.7338 -93.9580 33° Northeast  Level FlightAware Approximate
08:30PM 31.7980 -93.8706 60° Northeast  Level FlightAware Approximate
08:31PM 31.8358 -93.7606 65° Northeast  Level FlightAware Approximate
08:32PM 31.8781 -93.6529 66° East  Level FlightAware Approximate
08:33PM 31.9189 -93.5443 66° East  Level FlightAware Approximate
08:34PM 31.9596 -93.4356 66° East  Level FlightAware Approximate
08:35PM 32.0023 -93.3279 65° Northeast  Level FlightAware Approximate
08:36PM 32.0454 -93.2204 65° Northeast  Level FlightAware Approximate
08:37PM 32.0884 -93.1127 65° Northeast  Level FlightAware Approximate
08:38PM 32.1313 -93.0050 65° Northeast  Level FlightAware Approximate
08:39PM 32.1768 -92.8987 63° Northeast  Level FlightAware Approximate
08:40PM 32.2129 -92.7909 59° Northeast  Level FlightAware Approximate
08:41PM 32.2609 -92.6863 67° East  Level FlightAware Approximate
08:42PM 32.3001 -92.5765 67° East  Level FlightAware Approximate
08:43PM 32.3394 -92.4666 67° East  Level FlightAware Approximate
08:44PM 32.3793 -92.3570 67° East  Level FlightAware Approximate
08:45PM 32.4178 -92.2466 68° East  Level FlightAware Approximate
08:46PM 32.4584 -92.1373 65° Northeast  Level FlightAware Approximate
08:47PM 32.5000 -92.0333 65° Northeast  Level FlightAware Approximate
08:48PM 32.5109 -92.0377 65° Northeast  Level Estimated
08:49PM 32.5109 -92.0377 65° Northeast  Level Estimated
08:50PM 32.5109 -92.0377 65° Northeast  Level Estimated